Terminal Aerodrome Forecast
Issued by NWS

Home | Current Version | Previous Version | Text Only | Print | Product List | Glossary On
Versions: 1 2 3 4 5 6 7 8 9 10 11 12 13 14 15 16 17 18 19 20 21 22 23 24 25 26 27 28 29 30 31 32 33 34 35
928
FTUS43 KPAH 200904 AAA
TAFOWB
TAF AMD
KOWB 200904Z 2009/2106 VRB03KT 3SM BR BCFG BKN250
     FM201500 14006KT 4SM BR BKN010
     FM201600 15007KT P6SM SCT200=

USA.gov is the U.S. government's official web portal to all federal, state and local government web resources and services.